Time;durP1;ratioP1;P1;durP2;ratioP2;P2;SDS_P1;SDS_P2;PMS_P1;PMS_P2;Temp;Humidity;BMP_temperature;BMP_pressure;BME280_temperature;BME280_humidity;BME280_pressure;Samples;Min_cycle;Max_cycle;Signal;HPM_P1;HPM_P2
2023/12/25 00:00:27;;;;;;;1.70;1.27;;;;;;;10.52;62.58;100122.97;2513932;28;20053;-76
2023/12/25 00:01:41;;;;;;;1.17;0.98;;;;;;;10.52;63.83;100122.97;2514709;28;20056;-76
2023/12/25 00:02:56;;;;;;;3.53;1.13;;;;;;;10.53;62.99;100127.28;2514226;28;20049;-76
2023/12/25 00:04:09;;;;;;;1.38;1.00;;;;;;;10.53;62.95;100114.25;2513630;28;20057;-76
2023/12/25 00:05:24;;;;;;;8.40;1.25;;;;;;;10.53;62.96;100119.47;2514411;28;20046;-76
2023/12/25 00:06:37;;;;;;;4.00;1.00;;;;;;;10.52;63.05;100118.59;2514331;28;20054;-76
2023/12/25 00:07:51;;;;;;;4.18;1.58;;;;;;;10.52;63.92;100113.38;2514216;28;20052;-76
2023/12/25 00:09:05;;;;;;;1.45;1.00;;;;;;;10.53;63.21;100114.25;2513926;28;20050;-76
2023/12/25 00:10:19;;;;;;;4.43;1.23;;;;;;;10.52;63.83;100107.31;2514329;28;20046;-76
2023/12/25 00:11:33;;;;;;;3.30;1.10;;;;;;;10.51;62.64;100111.69;2514432;28;20519;-76
2023/12/25 00:12:48;;;;;;;2.25;0.80;;;;;;;10.52;62.63;100102.09;2513862;28;20057;-76
2023/12/25 00:14:02;;;;;;;1.83;1.35;;;;;;;10.50;62.65;100115.16;2514269;28;20038;-76
2023/12/25 00:15:16;;;;;;;2.25;0.70;;;;;;;10.49;63.01;100113.44;2513857;28;20692;-76
2023/12/25 00:16:30;;;;;;;4.97;3.00;;;;;;;10.47;63.14;100107.38;2513458;28;20042;-76
2023/12/25 00:17:44;;;;;;;7.97;4.70;;;;;;;10.48;63.11;100115.19;2514333;28;20046;-76
2023/12/25 00:18:58;;;;;;;2.42;1.17;;;;;;;10.48;62.17;100128.25;2514220;28;20046;-76
2023/12/25 00:20:13;;;;;;;5.43;1.25;;;;;;;10.47;63.20;100126.50;2513685;28;20050;-76
2023/12/25 00:21:26;;;;;;;3.70;1.45;;;;;;;10.48;63.46;100123.03;2514140;28;20046;-76
2023/12/25 00:22:40;;;;;;;1.73;0.90;;;;;;;10.49;63.49;100129.09;2514262;28;20042;-76
2023/12/25 00:23:54;;;;;;;4.93;1.42;;;;;;;10.50;62.23;100119.50;2513844;28;20439;-76
2023/12/25 00:25:09;;;;;;;6.50;1.00;;;;;;;10.49;62.65;100134.31;2521728;28;20046;-76
2023/12/25 00:26:22;;;;;;;1.98;1.15;;;;;;;10.48;63.14;100136.06;2514086;28;20396;-76
2023/12/25 00:27:37;;;;;;;1.63;0.80;;;;;;;10.49;63.25;100108.22;2514106;28;20121;-76
2023/12/25 00:28:51;;;;;;;1.38;0.90;;;;;;;10.50;62.80;100116.91;2513695;28;20050;-76
2023/12/25 00:30:07;;;;;;;2.10;1.23;;;;;;;10.50;62.54;100124.72;2514007;28;20130;-76
2023/12/25 00:31:21;;;;;;;1.77;1.33;;;;;;;10.51;62.76;100126.44;2513869;28;20061;-76
2023/12/25 00:32:35;;;;;;;2.10;1.00;;;;;;;10.51;62.72;100131.66;2513225;28;20435;-76
2023/12/25 00:33:48;;;;;;;4.63;2.20;;;;;;;10.50;63.05;100125.59;2513722;28;20049;-76
2023/12/25 00:35:03;;;;;;;2.35;1.10;;;;;;;10.51;63.51;100126.44;2514357;28;20050;-76
2023/12/25 00:36:17;;;;;;;1.38;0.80;;;;;;;10.48;62.73;100109.97;2513590;28;20054;-76
2023/12/25 00:37:31;;;;;;;2.40;1.25;;;;;;;10.50;63.35;100129.94;2514114;28;20052;-76
2023/12/25 00:38:45;;;;;;;3.42;1.20;;;;;;;10.51;63.35;100132.53;2514260;28;20050;-76
2023/12/25 00:39:59;;;;;;;4.68;1.02;;;;;;;10.51;64.04;100126.44;2513752;28;20069;-76
2023/12/25 00:41:12;;;;;;;2.55;0.90;;;;;;;10.50;63.74;100124.72;2513782;28;20071;-76
2023/12/25 00:42:27;;;;;;;1.23;1.13;;;;;;;10.49;63.30;100139.53;2513999;28;20500;-76
2023/12/25 00:43:40;;;;;;;4.22;1.50;;;;;;;10.49;63.84;100129.09;2513970;28;20054;-76
2023/12/25 00:44:56;;;;;;;2.05;1.75;;;;;;;10.47;63.04;100129.09;2514007;28;20043;-76
2023/12/25 00:46:10;;;;;;;1.20;0.73;;;;;;;10.48;62.50;100133.47;2513823;28;20443;-76
2023/12/25 00:47:24;;;;;;;1.80;1.55;;;;;;;10.48;62.96;100130.84;2514259;28;20050;-76
2023/12/25 00:48:37;;;;;;;5.15;1.27;;;;;;;10.51;63.20;100136.88;2513967;28;20042;-76
2023/12/25 00:49:52;;;;;;;6.97;3.22;;;;;;;10.50;63.44;100135.16;2514012;28;20529;-76
2023/12/25 00:51:05;;;;;;;3.38;1.13;;;;;;;10.49;64.38;100134.31;2513816;28;20443;-76
2023/12/25 00:52:20;;;;;;;3.17;1.55;;;;;;;10.49;64.05;100139.53;2512971;28;20049;-76
2023/12/25 00:53:33;;;;;;;3.63;1.00;;;;;;;10.47;63.47;100128.25;2514423;28;20043;-76
2023/12/25 00:54:47;;;;;;;1.30;0.93;;;;;;;10.46;63.45;100139.59;2514943;28;20049;-76
2023/12/25 00:56:04;;;;;;;2.85;0.90;;;;;;;10.46;64.01;100129.16;2513779;28;20046;-76
2023/12/25 00:57:18;;;;;;;2.72;1.15;;;;;;;10.44;63.74;100131.78;2514268;28;20061;-76
2023/12/25 00:58:31;;;;;;;1.83;1.00;;;;;;;10.45;64.17;100132.63;2514161;28;20053;-76
2023/12/25 00:59:46;;;;;;;4.32;1.27;;;;;;;10.45;65.06;100136.13;2514420;28;20056;-76
2023/12/25 01:01:01;;;;;;;3.13;1.60;;;;;;;10.45;63.58;100133.50;2513574;28;20496;-76
2023/12/25 01:02:15;;;;;;;2.85;0.80;;;;;;;10.45;63.32;100130.91;2514237;28;20583;-77
2023/12/25 01:03:29;;;;;;;4.00;1.40;;;;;;;10.44;64.30;100126.56;2515453;28;20076;-77
2023/12/25 01:04:43;;;;;;;3.45;1.17;;;;;;;10.44;63.78;100116.13;2520934;28;20033;-76
2023/12/25 01:05:56;;;;;;;3.60;1.60;;;;;;;10.44;63.08;100134.38;2522521;28;20053;-76
2023/12/25 01:07:11;;;;;;;1.38;1.05;;;;;;;10.44;63.81;100130.91;2513575;28;20056;-76
2023/12/25 01:08:24;;;;;;;3.47;0.95;;;;;;;10.43;63.58;100110.94;2512653;28;20049;-76
2023/12/25 01:09:39;;;;;;;1.20;0.93;;;;;;;10.42;63.72;100122.25;2514059;28;20526;-76
2023/12/25 01:10:52;;;;;;;2.70;1.15;;;;;;;10.40;63.69;100119.69;2513892;28;20107;-76
2023/12/25 01:12:07;;;;;;;2.00;0.93;;;;;;;10.38;63.41;100116.22;2513141;28;20489;-76
2023/12/25 01:13:20;;;;;;;6.95;2.08;;;;;;;10.37;63.74;100117.09;2513568;28;20054;-76
2023/12/25 01:14:35;;;;;;;1.20;0.98;;;;;;;10.36;63.00;100118.00;2513934;28;20046;-76
2023/12/25 01:15:48;;;;;;;3.15;1.20;;;;;;;10.36;63.67;100110.19;2513900;28;20046;-76
2023/12/25 01:17:04;;;;;;;3.17;1.15;;;;;;;10.36;63.64;100112.78;2513104;28;20038;-76
2023/12/25 01:18:18;;;;;;;1.63;0.80;;;;;;;10.35;63.74;100103.25;2526976;28;20499;-76
2023/12/25 01:19:32;;;;;;;3.58;1.05;;;;;;;10.34;63.83;100098.91;2513546;28;20052;-76
2023/12/25 01:20:46;;;;;;;3.35;1.83;;;;;;;10.33;63.69;100110.22;2513310;28;20069;-76
2023/12/25 01:22:01;;;;;;;3.92;2.30;;;;;;;10.33;64.71;100102.41;2513559;28;20488;-76
2023/12/25 01:23:14;;;;;;;2.53;1.85;;;;;;;10.33;64.47;100104.16;2513286;28;20047;-76
2023/12/25 01:24:29;;;;;;;2.95;1.02;;;;;;;10.31;63.76;100106.78;2513097;28;20048;-76
2023/12/25 01:25:42;;;;;;;3.78;0.98;;;;;;;10.31;63.33;100111.13;2513473;28;20050;-77
2023/12/25 01:26:57;;;;;;;1.85;1.30;;;;;;;10.31;63.46;100105.94;2513596;28;20121;-77
2023/12/25 01:28:10;;;;;;;2.40;0.95;;;;;;;10.29;63.98;100100.72;2513053;28;20057;-76
2023/12/25 01:29:24;;;;;;;2.50;0.90;;;;;;;10.30;63.62;100094.63;2513364;28;20050;-77
2023/12/25 01:30:38;;;;;;;1.20;0.98;;;;;;;10.30;63.22;100097.25;2513312;28;20050;-77
2023/12/25 01:31:52;;;;;;;13.20;1.15;;;;;;;10.29;64.70;100079.84;2513564;28;20046;-77
2023/12/25 01:33:07;;;;;;;2.97;1.17;;;;;;;10.29;64.16;100095.50;2513231;28;20046;-77
2023/12/25 01:34:21;;;;;;;4.05;1.10;;;;;;;10.28;63.99;100104.22;2513398;28;20047;-77
2023/12/25 01:35:35;;;;;;;5.32;1.30;;;;;;;10.28;64.19;100099.00;2513566;28;20423;-77
2023/12/25 01:36:49;;;;;;;0.95;0.82;;;;;;;10.27;64.18;100097.25;2512989;28;20046;-76
2023/12/25 01:38:03;;;;;;;1.23;0.70;;;;;;;10.25;63.95;100105.09;2513447;28;20639;-77
2023/12/25 01:39:18;;;;;;;1.05;0.95;;;;;;;10.25;64.07;100104.25;2513532;28;20057;-77
2023/12/25 01:40:31;;;;;;;1.00;0.93;;;;;;;10.24;64.05;100105.97;2512977;28;20388;-77
2023/12/25 01:41:45;;;;;;;2.80;0.70;;;;;;;10.23;64.40;100095.59;2513262;28;20049;-77
2023/12/25 01:42:59;;;;;;;1.17;1.08;;;;;;;10.23;63.71;100109.47;2513499;28;20050;-77
2023/12/25 01:44:13;;;;;;;2.42;0.68;;;;;;;10.23;63.31;100098.19;2512611;28;20064;-76
2023/12/25 01:45:27;;;;;;;2.25;2.05;;;;;;;10.23;63.75;100098.19;2513650;28;20050;-77
2023/12/25 01:46:42;;;;;;;2.70;0.90;;;;;;;10.23;64.02;100104.25;2513189;28;20080;-77
2023/12/25 01:47:56;;;;;;;2.55;1.05;;;;;;;10.21;63.89;100093.00;2513157;28;20495;-77
2023/12/25 01:49:11;;;;;;;0.55;0.55;;;;;;;10.21;65.01;100097.34;2513095;28;20046;-77
2023/12/25 01:50:25;;;;;;;1.30;1.10;;;;;;;10.19;64.62;100099.97;2513400;28;20046;-77
2023/12/25 01:51:40;;;;;;;2.25;0.88;;;;;;;10.19;63.96;100101.72;2513442;28;20054;-77
2023/12/25 01:52:54;;;;;;;1.98;1.23;;;;;;;10.19;64.37;100110.41;2512996;28;20054;-77
2023/12/25 01:54:08;;;;;;;3.10;2.25;;;;;;;10.20;64.29;100106.06;2513656;28;20470;-77
2023/12/25 01:55:22;;;;;;;1.77;0.93;;;;;;;10.19;64.20;100096.50;2513730;28;20042;-77
2023/12/25 01:56:36;;;;;;;2.83;1.00;;;;;;;10.19;64.36;100099.09;2517731;28;20046;-77
2023/12/25 01:57:50;;;;;;;2.47;0.60;;;;;;;10.18;64.37;100097.41;2518770;28;20050;-77
2023/12/25 01:59:04;;;;;;;0.70;0.70;;;;;;;10.17;64.23;100095.66;2513776;28;20050;-77
2023/12/25 02:00:18;;;;;;;4.07;1.75;;;;;;;10.16;64.04;100092.19;2513617;28;20046;-77
2023/12/25 02:01:32;;;;;;;1.52;0.80;;;;;;;10.14;64.18;100090.50;2513848;28;20056;-77
2023/12/25 02:02:46;;;;;;;1.38;1.05;;;;;;;10.14;64.06;100106.16;2513523;28;20451;-77
2023/12/25 02:04:00;;;;;;;1.00;0.80;;;;;;;10.12;63.75;100095.75;2512647;28;20042;-77
2023/12/25 02:05:15;;;;;;;2.58;1.33;;;;;;;10.11;64.20;100101.84;2513340;28;20046;-77
2023/12/25 02:06:30;;;;;;;3.05;0.93;;;;;;;10.10;64.65;100109.72;2513237;28;20050;-77
2023/12/25 02:07:44;;;;;;;0.68;0.60;;;;;;;10.08;64.21;100109.72;2513267;28;20046;-77
2023/12/25 02:08:58;;;;;;;2.83;1.13;;;;;;;10.08;64.33;100111.47;2512841;28;20084;-77
2023/12/25 02:10:24;;;;;;;2.25;0.75;;;;;;;10.08;64.54;100122.75;2513485;28;20051;-77
2023/12/25 02:11:41;;;;;;;1.48;1.05;;;;;;;10.07;64.17;100110.63;2513058;28;20069;-77
2023/12/25 02:12:55;;;;;;;4.78;1.15;;;;;;;10.08;64.68;100111.47;2512831;28;20415;-77
2023/12/25 02:14:10;;;;;;;2.47;1.10;;;;;;;10.05;64.86;100108.00;2513743;28;20042;-77
2023/12/25 02:15:24;;;;;;;1.75;1.08;;;;;;;10.07;64.47;100108.00;2513493;28;20058;-77
2023/12/25 02:16:39;;;;;;;3.08;1.00;;;;;;;10.09;63.86;100123.59;2513371;28;20039;-77
2023/12/25 02:17:52;;;;;;;2.78;0.85;;;;;;;10.11;63.55;100119.25;2513752;28;20496;-77
2023/12/25 02:19:17;;;;;;;2.08;1.10;;;;;;;10.14;64.56;100124.41;2513146;28;20047;-77
2023/12/25 02:20:33;;;;;;;2.67;0.82;;;;;;;10.15;64.18;100124.38;2512709;28;20054;-77
2023/12/25 02:21:48;;;;;;;15.57;9.80;;;;;;;10.15;64.11;100124.38;2513944;28;20042;-77
2023/12/25 02:23:06;;;;;;;2.05;1.67;;;;;;;10.14;63.51;100122.66;2514053;28;20049;-77
2023/12/25 02:24:23;;;;;;;2.28;1.05;;;;;;;10.16;63.87;100125.25;2512382;28;20500;-77
2023/12/25 02:25:47;;;;;;;1.48;1.38;;;;;;;10.16;63.94;100114.81;2513337;28;20050;-77
2023/12/25 02:27:01;;;;;;;7.20;6.32;;;;;;;10.16;63.96;100120.88;2513098;28;20050;-77
2023/12/25 02:28:15;;;;;;;53.63;38.63;;;;;;;10.16;64.09;100130.47;2512471;28;20046;-77
2023/12/25 02:29:29;;;;;;;25.15;15.93;;;;;;;10.15;63.88;100124.38;2512983;28;20056;-77
2023/12/25 02:30:44;;;;;;;15.63;12.13;;;;;;;10.17;64.82;100119.13;2513114;28;20051;-77
2023/12/25 02:31:59;;;;;;;24.00;17.40;;;;;;;10.15;64.25;100132.22;2512512;28;20121;-77
2023/12/25 02:33:12;;;;;;;2.72;1.75;;;;;;;10.16;63.46;100127.84;2513031;28;20054;-77
2023/12/25 02:34:27;;;;;;;25.00;22.30;;;;;;;10.16;64.36;100120.88;2512839;28;20053;-77
2023/12/25 02:35:40;;;;;;;4.38;3.88;;;;;;;10.16;63.98;100130.47;2513163;28;20054;-77
2023/12/25 02:36:54;;;;;;;6.20;5.60;;;;;;;10.16;64.14;100127.84;2512445;28;20415;-77
2023/12/25 02:38:08;;;;;;;3.20;2.72;;;;;;;10.16;64.63;100140.88;2513026;28;20046;-77
2023/12/25 02:39:23;;;;;;;2.85;2.40;;;;;;;10.16;64.33;100120.88;2512626;28;20076;-77
2023/12/25 02:40:39;;;;;;;1.10;0.70;;;;;;;10.16;63.58;100120.88;2512034;28;20415;-77
2023/12/25 02:41:54;;;;;;;2.10;1.02;;;;;;;10.17;63.03;100124.34;2512839;28;20046;-77
2023/12/25 02:43:08;;;;;;;3.42;1.10;;;;;;;10.17;62.90;100124.34;2513380;28;20043;-77
2023/12/25 02:44:23;;;;;;;2.38;1.17;;;;;;;10.18;63.89;100126.09;2512531;28;20134;-77
2023/12/25 02:45:36;;;;;;;0.80;0.80;;;;;;;10.17;63.32;100124.34;2513160;28;20487;-77
2023/12/25 02:46:51;;;;;;;1.80;1.00;;;;;;;10.16;63.38;100120.03;2512857;28;20054;-76
2023/12/25 02:48:05;;;;;;;1.08;0.90;;;;;;;10.15;63.51;100111.34;2512334;28;20392;-76
2023/12/25 02:49:20;;;;;;;3.33;1.20;;;;;;;10.14;64.05;100116.56;2512767;28;20050;-77
2023/12/25 02:50:33;;;;;;;4.85;0.98;;;;;;;10.13;64.48;100110.50;2513004;28;20057;-77
2023/12/25 02:51:48;;;;;;;1.85;0.93;;;;;;;10.12;64.27;100103.59;2512682;28;20046;-76
2023/12/25 02:53:03;;;;;;;1.77;1.15;;;;;;;10.12;63.94;100114.00;2512460;28;20052;-76
2023/12/25 02:54:17;;;;;;;0.77;0.77;;;;;;;10.12;63.20;100106.19;2512559;28;20050;-77
2023/12/25 02:55:31;;;;;;;1.55;1.10;;;;;;;10.14;63.66;100100.94;2512562;28;20531;-76
2023/12/25 02:56:45;;;;;;;0.77;0.75;;;;;;;10.15;62.53;100107.88;2511738;28;20047;-76
2023/12/25 02:58:00;;;;;;;1.02;1.02;;;;;;;10.14;63.30;100101.78;2512294;28;20050;-77
2023/12/25 02:59:15;;;;;;;0.90;0.80;;;;;;;10.15;62.70;100090.50;2512759;28;20204;-76
2023/12/25 03:00:30;;;;;;;2.15;0.90;;;;;;;10.14;62.67;100095.72;2512307;28;20053;-77
2023/12/25 03:01:44;;;;;;;1.20;0.73;;;;;;;10.13;63.64;100094.88;2512902;28;20046;-77
2023/12/25 03:02:58;;;;;;;0.80;0.80;;;;;;;10.12;64.20;100082.72;2512934;28;20046;-77
2023/12/25 03:04:12;;;;;;;0.60;0.60;;;;;;;10.13;62.50;100094.88;2511897;28;20042;-77
2023/12/25 03:05:26;;;;;;;1.80;0.95;;;;;;;10.13;62.74;100083.56;2516698;28;20046;-77
2023/12/25 03:06:40;;;;;;;2.05;0.95;;;;;;;10.13;63.47;100094.00;2512744;28;20480;-77
2023/12/25 03:07:53;;;;;;;1.95;0.95;;;;;;;10.11;63.28;100082.72;2517773;28;20045;-76
2023/12/25 03:09:08;;;;;;;1.05;0.73;;;;;;;10.11;64.09;100087.94;2515385;28;20046;-76
2023/12/25 03:10:21;;;;;;;0.55;0.50;;;;;;;10.09;63.56;100090.56;2512642;28;20524;-76
2023/12/25 03:11:36;;;;;;;1.88;1.15;;;;;;;10.09;63.65;100108.81;2512703;28;20066;-76
2023/12/25 03:12:49;;;;;;;1.00;0.73;;;;;;;10.09;63.33;100092.31;2512430;28;20042;-76
2023/12/25 03:14:05;;;;;;;1.13;0.93;;;;;;;10.08;63.50;100107.09;2512843;28;20414;-76
2023/12/25 03:15:18;;;;;;;1.45;0.70;;;;;;;10.09;64.12;100095.78;2513975;28;20468;-76
2023/12/25 03:16:33;;;;;;;3.00;1.17;;;;;;;10.08;63.41;100095.81;2525736;28;20037;-76
2023/12/25 03:17:46;;;;;;;0.90;0.70;;;;;;;10.07;63.81;100091.47;2513229;28;20050;-76
2023/12/25 03:19:01;;;;;;;1.33;1.20;;;;;;;10.06;63.79;100098.44;2512613;28;20042;-76
2023/12/25 03:20:14;;;;;;;2.33;0.60;;;;;;;10.04;63.65;100103.69;2512490;28;20050;-77
2023/12/25 03:21:29;;;;;;;1.10;1.00;;;;;;;10.04;64.41;100121.94;2512959;28;20082;-76
2023/12/25 03:22:44;;;;;;;1.42;0.70;;;;;;;10.03;63.38;100111.53;2513250;28;20415;-76
2023/12/25 03:23:59;;;;;;;0.88;0.65;;;;;;;10.04;63.27;100113.25;2512748;28;20050;-77
2023/12/25 03:25:12;;;;;;;1.60;0.70;;;;;;;10.07;63.93;100099.28;2513129;28;20061;-76
2023/12/25 03:26:26;;;;;;;2.00;1.00;;;;;;;10.07;63.73;100114.94;2513108;28;20054;-76
2023/12/25 03:27:40;;;;;;;1.77;1.05;;;;;;;10.04;63.44;100106.31;2513432;28;20057;-76
2023/12/25 03:28:54;;;;;;;3.30;1.20;;;;;;;10.04;64.38;100106.31;2512914;28;20511;-77
2023/12/25 03:30:10;;;;;;;2.95;0.95;;;;;;;10.05;62.92;100112.38;2513507;28;20046;-77
2023/12/25 03:31:24;;;;;;;4.15;0.85;;;;;;;10.04;63.71;100110.63;2512264;28;20058;-77
2023/12/25 03:32:38;;;;;;;4.03;0.75;;;;;;;10.06;63.63;100098.44;2512778;28;21167;-77
2023/12/25 03:33:53;;;;;;;1.88;1.00;;;;;;;10.04;62.96;100108.91;2512761;28;20046;-76
2023/12/25 03:35:07;;;;;;;1.35;0.75;;;;;;;10.07;63.43;100120.16;2513388;28;20069;-76
2023/12/25 03:36:21;;;;;;;1.17;0.95;;;;;;;10.05;64.00;100113.22;2512954;28;20046;-76
2023/12/25 03:37:35;;;;;;;2.20;0.82;;;;;;;10.05;63.13;100101.94;2512723;28;20574;-76
2023/12/25 03:38:49;;;;;;;1.25;0.82;;;;;;;10.05;63.48;100107.16;2512535;28;20050;-76
2023/12/25 03:40:03;;;;;;;1.00;0.80;;;;;;;10.03;64.49;100083.72;2512151;28;20042;-76
2023/12/25 03:41:17;;;;;;;1.13;0.82;;;;;;;10.03;64.25;100099.34;2512260;28;20050;-76
2023/12/25 03:42:31;;;;;;;1.42;1.00;;;;;;;10.02;63.54;100102.84;2512619;28;20051;-76
2023/12/25 03:43:45;;;;;;;1.13;1.02;;;;;;;10.02;64.26;100092.44;2512343;28;20046;-76
2023/12/25 03:44:59;;;;;;;2.58;0.60;;;;;;;10.02;63.61;100087.22;2512190;28;20050;-76
2023/12/25 03:46:14;;;;;;;1.48;1.02;;;;;;;10.02;63.95;100097.63;2512665;28;20061;-76
2023/12/25 03:47:28;;;;;;;0.57;0.50;;;;;;;10.01;63.95;100095.03;2514076;28;20053;-77
2023/12/25 03:48:43;;;;;;;4.75;0.95;;;;;;;10.00;64.20;100093.34;2513792;28;20050;-77
2023/12/25 03:49:56;;;;;;;0.98;0.80;;;;;;;9.99;62.89;100092.47;2516269;28;20415;-77
2023/12/25 03:51:10;;;;;;;5.82;2.08;;;;;;;9.99;63.07;100104.63;2516449;28;20049;-76
2023/12/25 03:52:24;;;;;;;0.65;0.63;;;;;;;9.98;63.36;100102.91;2513541;28;20096;-76
2023/12/25 03:53:39;;;;;;;0.85;0.82;;;;;;;9.97;63.46;100115.09;2513689;28;20116;-77
2023/12/25 03:54:52;;;;;;;2.25;1.45;;;;;;;9.97;63.27;100120.31;2512742;28;20050;-77
2023/12/25 03:56:07;;;;;;;1.90;1.70;;;;;;;9.97;64.20;100107.28;2511760;28;20504;-77
2023/12/25 03:57:21;;;;;;;3.42;0.75;;;;;;;9.96;63.81;100134.22;2511975;28;20419;-76
2023/12/25 03:58:35;;;;;;;1.52;0.77;;;;;;;9.95;63.92;100116.84;2512076;28;20047;-76
2023/12/25 03:59:49;;;;;;;0.57;0.57;;;;;;;9.95;63.69;100116.84;2516139;28;20419;-76
2023/12/25 04:01:03;;;;;;;2.45;0.60;;;;;;;9.97;63.34;100119.44;2515888;28;20042;-76
2023/12/25 04:02:18;;;;;;;3.05;1.02;;;;;;;9.95;63.05;100121.22;2520171;28;20058;-76
2023/12/25 04:03:32;;;;;;;1.67;0.70;;;;;;;9.96;63.36;100118.56;2512098;28;20082;-76
2023/12/25 04:04:46;;;;;;;1.15;0.88;;;;;;;9.95;63.78;100122.06;2511544;28;20117;-76
2023/12/25 04:06:00;;;;;;;1.40;0.75;;;;;;;9.95;63.74;100121.22;2512270;28;20057;-76
2023/12/25 04:07:14;;;;;;;3.75;0.70;;;;;;;9.95;63.64;100121.22;2512096;28;20054;-76
2023/12/25 04:08:29;;;;;;;1.20;0.73;;;;;;;9.95;63.60;100126.44;2511652;28;20522;-76
2023/12/25 04:09:42;;;;;;;1.52;0.98;;;;;;;9.94;63.67;100124.69;2511795;28;20042;-76
2023/12/25 04:10:57;;;;;;;0.93;0.70;;;;;;;9.93;62.99;100121.22;2512094;28;20042;-76
2023/12/25 04:12:10;;;;;;;1.50;1.38;;;;;;;9.93;62.99;100121.22;2511650;28;20050;-76
2023/12/25 04:13:24;;;;;;;1.42;0.63;;;;;;;9.94;63.39;100109.03;2519844;28;20052;-76
2023/12/25 04:14:39;;;;;;;1.20;0.73;;;;;;;9.93;63.59;100129.03;2512029;28;20046;-76
2023/12/25 04:15:53;;;;;;;0.52;0.50;;;;;;;9.92;63.20;100119.50;2512310;28;20506;-76
2023/12/25 04:17:07;;;;;;;2.08;1.00;;;;;;;9.93;63.76;100116.00;2511406;28;20522;-76
2023/12/25 04:18:22;;;;;;;1.00;0.88;;;;;;;9.92;63.42;100109.09;2512313;28;20046;-76
2023/12/25 04:19:36;;;;;;;1.08;1.08;;;;;;;9.92;63.15;100116.06;2512373;28;20512;-76
2023/12/25 04:20:50;;;;;;;0.95;0.82;;;;;;;9.91;63.58;100112.56;2511604;28;20043;-75
2023/12/25 04:22:04;;;;;;;1.40;0.80;;;;;;;9.89;63.28;100119.56;2512265;28;20396;-76
2023/12/25 04:23:18;;;;;;;2.25;0.80;;;;;;;9.90;63.83;100117.81;2511768;28;20052;-76
2023/12/25 04:24:31;;;;;;;4.85;1.63;;;;;;;9.90;63.72;100125.63;2511665;28;20038;-75
2023/12/25 04:25:46;;;;;;;1.95;0.95;;;;;;;9.88;63.12;100123.03;2511961;28;20050;-76
2023/12/25 04:26:59;;;;;;;1.00;0.88;;;;;;;9.89;63.20;100130.00;2511850;28;20511;-76
2023/12/25 04:28:14;;;;;;;1.10;0.93;;;;;;;9.89;62.62;100118.72;2511448;28;20050;-76
2023/12/25 04:29:27;;;;;;;1.75;0.98;;;;;;;9.88;62.90;100133.47;2512027;28;20053;-76
2023/12/25 04:30:41;;;;;;;1.10;1.00;;;;;;;9.89;62.92;100129.13;2512095;28;20423;-76
2023/12/25 04:31:55;;;;;;;2.17;1.20;;;;;;;9.88;62.97;100120.44;2512289;28;20050;-76
2023/12/25 04:33:09;;;;;;;0.75;0.70;;;;;;;9.88;62.79;100120.44;2511469;28;20046;-75
2023/12/25 04:34:24;;;;;;;1.65;0.60;;;;;;;9.87;63.20;100118.72;2511983;28;20066;-76
2023/12/25 04:35:39;;;;;;;1.73;0.80;;;;;;;9.88;63.13;100119.56;2512168;28;20129;-76
2023/12/25 04:36:53;;;;;;;6.07;0.93;;;;;;;9.86;63.44;100127.44;2511544;28;20043;-76
2023/12/25 04:38:06;;;;;;;0.80;0.80;;;;;;;9.84;63.56;100139.63;2511994;28;20042;-76
2023/12/25 04:39:21;;;;;;;0.88;0.70;;;;;;;9.83;63.20;100137.88;2512251;28;20050;-76
2023/12/25 04:40:34;;;;;;;0.88;0.80;;;;;;;9.81;63.13;100130.09;2511764;28;20046;-76
2023/12/25 04:41:49;;;;;;;1.75;0.70;;;;;;;9.80;63.08;100144.00;2512025;28;20422;-76
2023/12/25 04:43:02;;;;;;;1.95;0.95;;;;;;;9.80;63.02;100143.13;2514103;28;20057;-76
2023/12/25 04:44:17;;;;;;;0.98;0.70;;;;;;;9.78;63.41;100135.34;2512856;28;20061;-76
2023/12/25 04:45:30;;;;;;;6.50;1.83;;;;;;;9.78;63.57;100144.91;2513548;28;20423;-77
2023/12/25 04:46:44;;;;;;;1.95;0.90;;;;;;;9.76;63.35;100146.69;2514656;28;20046;-76
2023/12/25 04:47:58;;;;;;;1.88;1.15;;;;;;;9.74;63.08;100144.09;2523119;28;20046;-76
2023/12/25 04:49:12;;;;;;;1.05;0.95;;;;;;;9.75;63.57;100139.72;2513619;28;20507;-76
2023/12/25 04:50:27;;;;;;;0.80;0.75;;;;;;;9.73;63.46;100147.59;2513749;28;20053;-76
2023/12/25 04:51:41;;;;;;;1.00;0.50;;;;;;;9.73;63.36;100155.41;2513942;28;20046;-76
2023/12/25 04:52:55;;;;;;;1.23;1.10;;;;;;;9.72;63.73;100151.06;2513443;28;20496;-76
2023/12/25 04:54:09;;;;;;;1.63;0.77;;;;;;;9.71;63.57;100157.16;2513670;28;20050;-76
2023/12/25 04:55:23;;;;;;;1.13;0.75;;;;;;;9.71;63.43;100149.34;2513988;28;20042;-76
2023/12/25 04:56:37;;;;;;;3.40;0.80;;;;;;;9.71;63.40;100149.34;2513547;28;20042;-77
2023/12/25 04:57:50;;;;;;;1.48;0.90;;;;;;;9.72;63.42;100148.44;2513752;28;20069;-77
2023/12/25 04:59:05;;;;;;;1.40;1.27;;;;;;;9.73;63.58;100141.50;2513790;28;20042;-76
2023/12/25 05:00:18;;;;;;;2.20;0.75;;;;;;;9.73;63.73;100149.31;2513564;28;20475;-76
2023/12/25 05:01:33;;;;;;;2.00;0.68;;;;;;;9.72;63.69;100147.59;2513502;28;20062;-76
2023/12/25 05:02:46;;;;;;;1.77;0.80;;;;;;;9.71;63.69;100148.47;2513643;28;20043;-76
2023/12/25 05:04:01;;;;;;;0.60;0.57;;;;;;;9.71;63.93;100151.09;2513090;28;20054;-76
2023/12/25 05:05:15;;;;;;;0.88;0.60;;;;;;;9.71;63.72;100144.13;2513784;28;20042;-76
2023/12/25 05:06:30;;;;;;;1.63;1.02;;;;;;;9.71;63.02;100159.75;2513635;28;20046;-76
2023/12/25 05:07:44;;;;;;;3.20;2.15;;;;;;;9.72;63.22;100145.84;2513744;28;20050;-76
2023/12/25 05:08:58;;;;;;;1.27;0.75;;;;;;;9.72;63.31;100144.97;2513293;28;20042;-76
2023/12/25 05:10:12;;;;;;;0.98;0.70;;;;;;;9.70;63.40;100142.38;2513856;28;20050;-76
2023/12/25 05:11:27;;;;;;;1.10;0.43;;;;;;;9.70;63.47;100145.00;2513444;28;20076;-76
2023/12/25 05:12:41;;;;;;;0.90;0.90;;;;;;;9.68;63.32;100133.75;2513294;28;20145;-77
2023/12/25 05:13:55;;;;;;;2.05;0.98;;;;;;;9.68;63.84;100135.47;2513536;28;20496;-77
2023/12/25 05:15:10;;;;;;;1.35;0.98;;;;;;;9.66;63.67;100138.13;2524948;28;20041;-76
2023/12/25 05:16:24;;;;;;;1.60;0.82;;;;;;;9.65;64.02;100132.91;2516663;28;20038;-77
2023/12/25 05:17:37;;;;;;;1.13;1.13;;;;;;;9.63;63.63;100134.66;2513728;28;20054;-77
2023/12/25 05:18:52;;;;;;;0.85;0.85;;;;;;;9.61;63.15;100129.50;2513612;28;20047;-77
2023/12/25 05:20:07;;;;;;;1.13;0.93;;;;;;;9.60;63.59;100139.06;2512775;28;20043;-76
2023/12/25 05:21:21;;;;;;;1.02;0.90;;;;;;;9.59;63.70;100139.94;2513596;28;20167;-76
2023/12/25 05:22:36;;;;;;;1.08;0.98;;;;;;;9.59;64.01;100134.72;2490499;28;20077;-77
2023/12/25 05:23:50;;;;;;;2.28;0.95;;;;;;;9.57;63.46;100138.22;2522470;28;20466;-77
2023/12/25 05:25:05;;;;;;;3.03;0.70;;;;;;;9.55;63.59;100137.38;2525050;28;20045;-77
2023/12/25 05:26:20;;;;;;;0.80;0.60;;;;;;;9.53;63.07;100124.38;2523590;28;20483;-76
2023/12/25 05:27:34;;;;;;;1.13;0.80;;;;;;;9.53;63.13;100123.53;2514045;28;20054;-76
2023/12/25 05:28:48;;;;;;;1.38;1.02;;;;;;;9.52;62.68;100132.22;2513106;28;20140;-76
2023/12/25 05:30:02;;;;;;;1.42;0.80;;;;;;;9.51;62.54;100123.53;2513536;28;20496;-76
2023/12/25 05:31:16;;;;;;;1.05;0.90;;;;;;;9.52;62.83;100127.84;2513377;28;20051;-76
2023/12/25 05:32:30;;;;;;;1.98;0.98;;;;;;;9.49;62.81;100122.69;2513048;28;20416;-75
2023/12/25 05:33:45;;;;;;;1.38;0.80;;;;;;;9.47;62.86;100121.84;2513442;28;20054;-76
2023/12/25 05:34:58;;;;;;;1.27;0.95;;;;;;;9.47;63.01;100127.06;2513893;28;20053;-76
2023/12/25 05:36:13;;;;;;;1.25;0.90;;;;;;;9.45;62.85;100126.22;2519332;28;20062;-76
2023/12/25 05:37:26;;;;;;;0.70;0.70;;;;;;;9.45;62.86;100114.94;2514801;28;20062;-76
2023/12/25 05:38:42;;;;;;;2.28;0.70;;;;;;;9.43;62.91;100117.56;2515677;28;20073;-76
2023/12/25 05:39:55;;;;;;;2.95;1.77;;;;;;;9.42;62.17;100110.63;2519307;28;20492;-77
2023/12/25 05:41:10;;;;;;;3.20;0.68;;;;;;;9.40;62.53;100107.19;2513318;28;20045;-76
2023/12/25 05:42:23;;;;;;;0.93;0.80;;;;;;;9.40;62.47;100109.78;2513827;28;20054;-77
2023/12/25 05:43:37;;;;;;;1.77;0.80;;;;;;;9.37;62.62;100113.31;2496681;28;20499;-76
2023/12/25 05:44:51;;;;;;;1.30;0.70;;;;;;;9.37;62.81;100120.22;2522026;28;20050;-75
2023/12/25 05:46:05;;;;;;;1.50;1.17;;;;;;;9.34;62.41;100115.91;2517811;28;20541;-76